createdAt,value
2022-09-13T00:00:37.234Z,3.40
2022-09-13T00:03:25.984Z,3.22
2022-09-13T00:06:15.155Z,3.08
2022-09-13T00:09:02.181Z,3.08
2022-09-13T00:11:49.423Z,3.65
2022-09-13T00:14:36.265Z,3.40
2022-09-13T00:17:23.503Z,2.67
2022-09-13T00:20:11.988Z,3.17
2022-09-13T00:22:59.007Z,2.95
2022-09-13T00:25:46.090Z,3.08
2022-09-13T00:28:32.907Z,3.30
2022-09-13T00:31:21.718Z,3.28
2022-09-13T00:34:08.677Z,3.25
2022-09-13T00:36:57.280Z,3.13
2022-09-13T00:39:48.007Z,3.28
2022-09-13T00:42:37.575Z,3.08
2022-09-13T00:45:24.532Z,3.05
2022-09-13T00:48:21.163Z,2.90
2022-09-13T00:51:09.999Z,3.00
2022-09-13T00:54:00.953Z,3.00
2022-09-13T00:56:52.186Z,2.75
2022-09-13T00:59:43.815Z,2.47
2022-09-13T01:02:31.514Z,3.28
2022-09-13T01:05:22.086Z,2.72
2022-09-13T01:08:16.284Z,3.17
2022-09-13T01:11:08.004Z,2.90
2022-09-13T01:13:56.937Z,3.08
2022-09-13T01:16:47.765Z,3.58
2022-09-13T01:19:36.438Z,3.08
2022-09-13T01:22:41.049Z,3.20
2022-09-13T01:25:49.002Z,3.20
2022-09-13T01:28:55.436Z,3.03
2022-09-13T01:31:52.613Z,3.10
2022-09-13T01:34:55.950Z,3.20
2022-09-13T01:37:55.591Z,3.10
2022-09-13T01:41:04.521Z,2.83
2022-09-13T01:44:02.037Z,2.63
2022-09-13T01:47:00.090Z,3.15
2022-09-13T01:49:52.251Z,3.05
2022-09-13T01:52:46.915Z,3.03
2022-09-13T01:55:41.918Z,2.88
2022-09-13T01:58:36.285Z,2.67
2022-09-13T02:01:28.170Z,2.67
2022-09-13T02:04:22.877Z,2.80
2022-09-13T02:07:15.054Z,3.08
2022-09-13T02:10:07.756Z,3.00
2022-09-13T02:12:57.105Z,3.17
2022-09-13T02:15:48.761Z,2.80
2022-09-13T02:18:41.107Z,2.97
2022-09-13T02:21:33.166Z,2.88
2022-09-13T02:24:24.191Z,2.78
2022-09-13T02:27:16.287Z,2.70
2022-09-13T02:30:06.213Z,2.65
2022-09-13T02:32:57.414Z,3.25
2022-09-13T02:35:52.423Z,2.85
2022-09-13T02:38:45.404Z,2.83
2022-09-13T02:41:37.710Z,2.90
2022-09-13T02:44:29.632Z,2.78
2022-09-13T02:47:37.452Z,2.80
2022-09-13T02:50:38.003Z,2.65
2022-09-13T02:53:32.256Z,3.00
2022-09-13T02:56:26.613Z,2.55
2022-09-13T02:59:17.784Z,2.70
2022-09-13T03:02:08.234Z,3.05
2022-09-13T03:04:55.817Z,3.78
2022-09-13T03:07:43.128Z,2.92
2022-09-13T03:10:37.930Z,2.75
2022-09-13T03:13:38.972Z,2.80
2022-09-13T03:16:44.193Z,3.03
2022-09-13T03:19:50.378Z,3.17
2022-09-13T03:23:02.990Z,2.72
2022-09-13T03:25:49.578Z,3.63
2022-09-13T03:28:47.267Z,3.17
2022-09-13T03:31:38.013Z,2.97
2022-09-13T03:34:34.972Z,3.50
2022-09-13T03:37:28.683Z,2.70
2022-09-13T03:40:20.590Z,2.78
2022-09-13T03:43:14.643Z,2.72
2022-09-13T03:46:06.748Z,2.67
2022-09-13T03:48:55.834Z,3.42
2022-09-13T03:51:44.499Z,2.80
2022-09-13T03:54:33.534Z,2.50
2022-09-13T03:57:22.945Z,2.30
2022-09-13T04:00:15.306Z,2.83
2022-09-13T04:03:03.927Z,2.60
2022-09-13T04:05:51.085Z,3.58
2022-09-13T04:08:38.038Z,3.10
2022-09-13T04:11:25.115Z,3.58
2022-09-13T04:14:12.228Z,3.55
2022-09-13T04:16:59.666Z,2.90
2022-09-13T04:19:48.266Z,3.40
2022-09-13T04:22:35.180Z,3.47
2022-09-13T04:25:22.996Z,3.08
2022-09-13T04:28:10.074Z,3.33
2022-09-13T04:30:57.120Z,2.70
2022-09-13T04:33:44.280Z,2.38
2022-09-13T04:36:32.771Z,2.60
2022-09-13T04:39:20.316Z,2.65
2022-09-13T04:42:08.467Z,2.90
2022-09-13T04:44:55.863Z,2.63
2022-09-13T04:47:43.112Z,2.90
2022-09-13T04:50:29.980Z,2.80
2022-09-13T04:53:18.672Z,2.90
2022-09-13T04:56:07.616Z,2.40
2022-09-13T04:58:56.803Z,2.50
2022-09-13T05:01:44.599Z,2.97
2022-09-13T05:04:31.776Z,2.38
2022-09-13T05:07:18.673Z,2.50
2022-09-13T05:10:07.627Z,2.58
2022-09-13T05:12:54.725Z,2.38
2022-09-13T05:15:41.923Z,2.63
2022-09-13T05:18:29.686Z,2.67
2022-09-13T05:21:17.110Z,2.40
2022-09-13T05:24:04.170Z,2.47
2022-09-13T05:26:52.756Z,2.60
2022-09-13T05:29:40.131Z,2.20
2022-09-13T05:32:26.970Z,2.40
2022-09-13T05:35:14.063Z,2.40
2022-09-13T05:38:01.301Z,2.40
2022-09-13T05:40:49.319Z,2.10
2022-09-13T05:43:38.224Z,2.15
2022-09-13T05:46:25.605Z,2.35
2022-09-13T05:49:14.142Z,2.42
2022-09-13T05:52:01.193Z,2.42
2022-09-13T05:54:48.004Z,2.05
2022-09-13T05:57:35.005Z,2.58
2022-09-13T06:00:23.346Z,2.50
2022-09-13T06:03:10.452Z,2.50
2022-09-13T06:05:58.989Z,2.55
2022-09-13T06:08:46.319Z,2.33
2022-09-13T06:11:33.688Z,2.85
2022-09-13T06:14:20.788Z,2.53
2022-09-13T06:17:09.518Z,2.83
2022-09-13T06:19:57.088Z,2.85
2022-09-13T06:22:43.977Z,2.40
2022-09-13T06:25:31.189Z,2.08
2022-09-13T06:28:20.732Z,2.00
2022-09-13T06:31:10.598Z,1.92
2022-09-13T06:34:02.572Z,2.00
2022-09-13T06:36:49.491Z,1.73
2022-09-13T06:39:36.344Z,1.40
2022-09-13T06:42:23.328Z,2.17
2022-09-13T06:45:11.955Z,1.95
2022-09-13T06:47:58.873Z,1.55
2022-09-13T06:50:47.379Z,1.70
2022-09-13T06:53:36.535Z,2.15
2022-09-13T06:56:24.953Z,1.67
2022-09-13T06:59:12.338Z,1.50
2022-09-13T07:01:59.473Z,1.13
2022-09-13T07:04:46.345Z,1.70
2022-09-13T07:07:34.688Z,1.30
2022-09-13T07:10:21.683Z,1.48
2022-09-13T07:13:08.649Z,1.70
2022-09-13T07:15:55.840Z,1.48
2022-09-13T07:18:42.824Z,1.42
2022-09-13T07:21:30.390Z,1.00
2022-09-13T07:24:20.029Z,1.30
2022-09-13T07:27:07.248Z,1.25
2022-09-13T07:29:54.242Z,1.33
2022-09-13T07:32:42.822Z,1.38
2022-09-13T07:35:29.873Z,1.20
2022-09-13T07:38:16.848Z,1.25
2022-09-13T07:41:09.080Z,1.10
2022-09-13T07:43:56.360Z,1.33
2022-09-13T07:46:43.853Z,1.10
2022-09-13T07:49:30.949Z,1.50
2022-09-13T07:52:17.701Z,1.23
2022-09-13T07:55:04.830Z,1.10
2022-09-13T07:57:53.582Z,1.10
2022-09-13T08:00:40.794Z,1.25
2022-09-13T08:03:28.057Z,0.93
2022-09-13T08:06:15.037Z,0.80
2022-09-13T08:09:02.629Z,0.90
2022-09-13T08:11:53.232Z,0.90
2022-09-13T08:14:41.751Z,0.95
2022-09-13T08:17:28.682Z,0.93
2022-09-13T08:20:15.913Z,0.60
2022-09-13T08:23:03.140Z,0.95
2022-09-13T08:25:50.073Z,0.82
2022-09-13T08:28:38.034Z,0.75
2022-09-13T08:31:27.292Z,0.70
2022-09-13T08:34:15.720Z,0.80
2022-09-13T08:37:02.782Z,0.95
2022-09-13T08:39:49.751Z,0.90
2022-09-13T08:42:51.094Z,0.73
2022-09-13T08:45:38.367Z,0.80
2022-09-13T08:48:33.937Z,0.85
2022-09-13T08:51:33.409Z,0.90
2022-09-13T08:54:21.545Z,0.95
2022-09-13T08:57:15.210Z,1.00
2022-09-13T09:00:17.757Z,0.85
2022-09-13T09:03:20.131Z,0.88
2022-09-13T09:06:15.563Z,0.98
2022-09-13T09:09:09.012Z,0.80
2022-09-13T09:12:00.994Z,1.40
2022-09-13T09:14:58.530Z,0.90
2022-09-13T09:17:52.145Z,1.00
2022-09-13T09:20:44.100Z,0.80
2022-09-13T09:23:39.121Z,0.80
2022-09-13T09:26:29.430Z,1.45
2022-09-13T09:29:24.699Z,0.95
2022-09-13T09:32:26.537Z,0.90
2022-09-13T09:35:23.277Z,0.90
2022-09-13T09:38:31.708Z,1.10
2022-09-13T09:41:27.652Z,2.13
2022-09-13T09:44:20.463Z,0.85
2022-09-13T09:47:16.547Z,0.85
2022-09-13T09:50:12.011Z,0.93
2022-09-13T09:53:04.171Z,1.20
2022-09-13T09:55:59.427Z,0.70
2022-09-13T09:58:49.023Z,0.77
2022-09-13T10:01:40.116Z,1.00
2022-09-13T10:04:27.658Z,0.80
2022-09-13T10:07:29.669Z,0.82
2022-09-13T10:10:23.668Z,0.80
2022-09-13T10:13:17.583Z,0.80
2022-09-13T10:16:08.207Z,0.90
2022-09-13T10:18:55.836Z,0.70
2022-09-13T10:21:43.342Z,0.85
2022-09-13T10:24:30.941Z,0.80
2022-09-13T10:27:33.895Z,0.70
2022-09-13T10:30:34.189Z,0.70
2022-09-13T10:33:29.901Z,0.80
2022-09-13T10:36:35.271Z,0.75
2022-09-13T10:39:29.882Z,0.90
2022-09-13T10:42:23.697Z,0.80
2022-09-13T10:45:23.846Z,0.90
2022-09-13T10:48:15.452Z,0.77
2022-09-13T10:51:07.561Z,0.70
2022-09-13T10:54:10.527Z,0.70
2022-09-13T10:56:57.570Z,0.70
2022-09-13T10:59:53.778Z,0.70
2022-09-13T11:02:57.480Z,0.60
2022-09-13T11:05:51.071Z,0.90
2022-09-13T11:08:47.695Z,0.85
2022-09-13T11:11:40.154Z,0.80
2022-09-13T11:14:43.448Z,0.80
2022-09-13T11:17:44.707Z,1.67
2022-09-13T11:20:43.157Z,0.85
2022-09-13T11:23:58.650Z,0.90
2022-09-13T11:26:59.823Z,0.70
2022-09-13T11:30:01.488Z,0.60
2022-09-13T11:33:10.379Z,0.75
2022-09-13T11:36:22.522Z,0.65
2022-09-13T11:39:20.614Z,0.70
2022-09-13T11:42:23.654Z,1.00
2022-09-13T11:45:21.802Z,0.88
2022-09-13T11:48:21.679Z,0.70
2022-09-13T11:51:20.646Z,0.70
2022-09-13T11:54:24.004Z,0.70
2022-09-13T11:57:16.210Z,0.90
2022-09-13T12:00:08.004Z,0.77
2022-09-13T12:03:03.970Z,0.80
2022-09-13T12:05:55.129Z,0.50
2022-09-13T12:08:46.610Z,0.68
2022-09-13T12:11:37.694Z,0.43
2022-09-13T12:14:30.630Z,0.52
2022-09-13T12:20:19.911Z,0.80
2022-09-13T12:23:16.214Z,0.90
2022-09-13T12:26:07.374Z,0.65
2022-09-13T12:28:59.507Z,0.60
2022-09-13T12:31:47.035Z,0.60
2022-09-13T12:34:41.998Z,0.60
2022-09-13T12:37:47.232Z,0.70
2022-09-13T12:40:52.717Z,0.82
2022-09-13T12:43:57.936Z,0.60
2022-09-13T12:47:09.991Z,0.80
2022-09-13T12:49:58.899Z,0.65
2022-09-13T12:53:03.741Z,0.70
2022-09-13T12:56:03.352Z,0.70
2022-09-13T12:59:15.570Z,0.80
2022-09-13T13:02:05.795Z,0.70
2022-09-13T13:04:57.564Z,0.63
2022-09-13T13:07:52.373Z,0.73
2022-09-13T13:10:40.432Z,0.80
2022-09-13T13:13:36.727Z,0.60
2022-09-13T13:16:28.897Z,0.75
2022-09-13T13:19:33.241Z,0.60
2022-09-13T13:22:50.060Z,0.80
2022-09-13T13:25:39.301Z,0.70
2022-09-13T13:28:56.001Z,0.60
2022-09-13T13:31:48.022Z,0.70
2022-09-13T13:34:42.415Z,0.57
2022-09-13T13:37:36.779Z,0.77
2022-09-13T13:40:27.172Z,1.00
2022-09-13T13:43:31.693Z,0.70
2022-09-13T13:46:29.443Z,0.60
2022-09-13T13:49:46.263Z,0.63
2022-09-13T13:52:39.057Z,0.70
2022-09-13T13:55:40.277Z,0.93
2022-09-13T13:58:48.354Z,0.80
2022-09-13T14:01:35.330Z,0.60
2022-09-13T14:04:54.629Z,0.63
2022-09-13T14:08:04.746Z,0.77
2022-09-13T14:10:52.845Z,0.60
2022-09-13T14:13:54.721Z,0.82
2022-09-13T14:16:58.834Z,0.60
2022-09-13T14:19:48.404Z,0.70
2022-09-13T14:22:36.872Z,0.60
2022-09-13T14:25:26.457Z,0.77
2022-09-13T14:28:19.165Z,0.90
2022-09-13T14:31:06.346Z,0.45
2022-09-13T14:33:54.189Z,0.70
2022-09-13T14:36:53.830Z,1.20
2022-09-13T14:39:56.106Z,0.80
2022-09-13T14:42:45.069Z,0.63
2022-09-13T14:45:36.926Z,0.57
2022-09-13T14:48:27.191Z,0.80
2022-09-13T14:51:19.438Z,0.70
2022-09-13T14:54:12.802Z,0.80
2022-09-13T14:57:04.278Z,0.57
2022-09-13T14:59:54.594Z,0.90
2022-09-13T15:02:43.412Z,0.90
2022-09-13T15:05:34.363Z,1.15
2022-09-13T15:08:39.115Z,0.70
2022-09-13T15:11:33.448Z,0.65
2022-09-13T15:14:28.549Z,0.60
2022-09-13T15:17:16.099Z,0.77
2022-09-13T15:20:06.900Z,0.90
2022-09-13T15:22:54.801Z,0.63
2022-09-13T15:25:41.939Z,0.70
2022-09-13T15:28:31.275Z,0.80
2022-09-13T15:31:27.040Z,0.98
2022-09-13T15:34:23.654Z,1.15
2022-09-13T15:37:13.034Z,0.80
2022-09-13T15:40:16.683Z,1.95
2022-09-13T15:43:03.815Z,0.88
2022-09-13T15:45:50.875Z,1.60
2022-09-13T15:48:47.214Z,1.00
2022-09-13T15:51:38.962Z,1.05
2022-09-13T15:54:33.285Z,1.20
2022-09-13T15:57:23.980Z,1.00
2022-09-13T16:00:16.015Z,1.98
2022-09-13T16:03:02.928Z,1.85
2022-09-13T16:05:51.579Z,2.80
2022-09-13T16:08:39.642Z,2.38
2022-09-13T16:11:27.039Z,2.50
2022-09-13T16:14:14.120Z,2.92
2022-09-13T16:17:04.244Z,3.20
2022-09-13T16:19:51.101Z,3.22
2022-09-13T16:22:39.423Z,2.80
2022-09-13T16:25:26.578Z,2.75
2022-09-13T16:28:20.157Z,3.17
2022-09-13T16:31:09.795Z,2.45
2022-09-13T16:33:56.886Z,1.83
2022-09-13T16:36:43.958Z,1.83
2022-09-13T16:39:32.286Z,2.33
2022-09-13T16:42:20.153Z,2.90
2022-09-13T16:45:08.439Z,2.22
2022-09-13T16:47:55.604Z,1.35
2022-09-13T16:50:43.279Z,1.75
2022-09-13T16:53:33.613Z,1.92
2022-09-13T16:56:24.573Z,1.48
2022-09-13T16:59:11.843Z,1.58
2022-09-13T17:01:58.968Z,1.50
2022-09-13T17:04:46.955Z,1.92
2022-09-13T17:07:34.358Z,2.28
2022-09-13T17:10:22.369Z,2.75
2022-09-13T17:13:12.161Z,2.17
2022-09-13T17:15:59.592Z,1.50
2022-09-13T17:18:46.766Z,1.85
2022-09-13T17:21:35.038Z,1.80
2022-09-13T17:24:22.155Z,1.75
2022-09-13T17:27:09.504Z,2.88
2022-09-13T17:29:58.062Z,1.85
2022-09-13T17:32:44.953Z,1.80
2022-09-13T17:35:32.186Z,2.33
2022-09-13T17:38:19.328Z,2.65
2022-09-13T17:41:08.884Z,2.22
2022-09-13T17:43:55.977Z,1.80
2022-09-13T17:46:44.762Z,2.63
2022-09-13T17:49:31.777Z,2.50
2022-09-13T17:52:18.788Z,2.58
2022-09-13T17:55:06.859Z,2.67
2022-09-13T17:57:55.551Z,2.50
2022-09-13T18:00:42.562Z,3.00
2022-09-13T18:03:31.848Z,2.75
2022-09-13T18:06:18.762Z,2.90
2022-09-13T18:09:06.512Z,3.15
2022-09-13T18:11:53.494Z,2.65
2022-09-13T18:14:40.884Z,2.88
2022-09-13T18:17:28.055Z,2.65
2022-09-13T18:20:16.778Z,3.10
2022-09-13T18:23:04.019Z,3.50
2022-09-13T18:26:02.961Z,3.53
2022-09-13T18:28:56.230Z,3.25
2022-09-13T18:31:44.010Z,3.25
2022-09-13T18:34:31.299Z,3.03
2022-09-13T18:37:19.542Z,3.35
2022-09-13T18:40:09.335Z,3.10
2022-09-13T18:42:57.240Z,3.38
2022-09-13T18:45:44.441Z,3.47
2022-09-13T18:48:32.976Z,3.92
2022-09-13T18:51:22.802Z,4.00
2022-09-13T18:54:16.338Z,3.88
2022-09-13T18:57:03.538Z,4.65
2022-09-13T18:59:50.697Z,3.63
2022-09-13T19:02:52.049Z,2.92
2022-09-13T19:05:45.362Z,3.45
2022-09-13T19:08:32.171Z,4.50
2022-09-13T19:11:45.297Z,4.13
2022-09-13T19:14:30.659Z,3.15
2022-09-13T19:17:17.864Z,3.40
2022-09-13T19:20:06.022Z,3.30
2022-09-13T19:22:53.791Z,3.28
2022-09-13T19:25:40.764Z,3.20
2022-09-13T19:28:29.213Z,3.30
2022-09-13T19:31:17.213Z,3.72
2022-09-13T19:34:06.328Z,3.95
2022-09-13T19:36:58.190Z,4.07
2022-09-13T19:39:46.778Z,3.90
2022-09-13T19:42:33.730Z,3.92
2022-09-13T19:45:22.779Z,4.50
2022-09-13T19:48:39.739Z,4.47
2022-09-13T19:51:19.941Z,4.70
2022-09-13T19:54:07.899Z,5.00
2022-09-13T19:56:55.091Z,4.78
2022-09-13T19:59:41.950Z,5.07
2022-09-13T20:02:30.229Z,4.65
2022-09-13T20:05:18.048Z,4.60
2022-09-13T20:08:05.405Z,4.13
2022-09-13T20:10:52.715Z,3.92
2022-09-13T20:13:40.275Z,4.22
2022-09-13T20:16:29.440Z,4.00
2022-09-13T20:22:27.746Z,3.45
2022-09-13T20:25:14.879Z,3.92
2022-09-13T20:28:02.107Z,4.80
2022-09-13T20:30:55.556Z,6.65
2022-09-13T20:33:43.240Z,7.90
2022-09-13T20:36:34.178Z,9.88
2022-09-13T20:39:21.012Z,8.68
2022-09-13T20:42:08.236Z,8.13
2022-09-13T20:44:55.356Z,7.43
2022-09-13T20:47:42.206Z,6.50
2022-09-13T20:50:28.992Z,7.53
2022-09-13T20:53:17.525Z,6.05
2022-09-13T20:56:04.903Z,5.18
2022-09-13T20:58:57.414Z,5.35
2022-09-13T21:01:45.224Z,5.43
2022-09-13T21:04:32.509Z,4.35
2022-09-13T21:07:33.529Z,4.40
2022-09-13T21:10:21.230Z,3.20
2022-09-13T21:13:07.182Z,3.97
2022-09-13T21:15:52.882Z,3.92
2022-09-13T21:18:41.463Z,3.65
2022-09-13T21:21:31.565Z,3.70
2022-09-13T21:24:18.734Z,4.10
2022-09-13T21:27:07.186Z,4.53
2022-09-13T21:29:54.313Z,4.25
2022-09-13T21:32:42.284Z,4.47
2022-09-13T21:35:29.354Z,3.50
2022-09-13T21:38:16.001Z,4.03
2022-09-13T21:41:05.277Z,3.80
2022-09-13T21:43:54.383Z,3.67
2022-09-13T21:46:42.406Z,3.17
2022-09-13T21:49:29.741Z,3.47
2022-09-13T21:52:16.981Z,3.55
2022-09-13T21:55:04.309Z,3.65
2022-09-13T21:57:52.137Z,3.50
2022-09-13T22:00:41.095Z,3.28
2022-09-13T22:03:27.991Z,3.20
2022-09-13T22:06:17.054Z,3.67
2022-09-13T22:09:07.589Z,3.65
2022-09-13T22:11:55.113Z,3.30
2022-09-13T22:14:41.844Z,3.33
2022-09-13T22:17:30.737Z,3.17
2022-09-13T22:20:17.997Z,3.22
2022-09-13T22:23:04.839Z,3.88
2022-09-13T22:25:53.158Z,3.72
2022-09-13T22:28:40.363Z,3.60
2022-09-13T22:31:30.367Z,3.58
2022-09-13T22:34:21.231Z,3.35
2022-09-13T22:37:08.338Z,3.50
2022-09-13T22:39:57.630Z,3.47
2022-09-13T22:42:44.673Z,3.35
2022-09-13T22:45:31.954Z,3.20
2022-09-13T22:48:19.175Z,3.10
2022-09-13T22:51:08.937Z,3.30
2022-09-13T22:53:56.876Z,3.00
2022-09-13T22:56:44.328Z,3.50
2022-09-13T22:59:31.086Z,2.90
2022-09-13T23:02:18.058Z,3.53
2022-09-13T23:05:05.480Z,3.38
2022-09-13T23:07:54.021Z,2.97
2022-09-13T23:10:40.940Z,3.38
2022-09-13T23:13:27.883Z,3.33
2022-09-13T23:16:18.294Z,3.40
2022-09-13T23:19:05.471Z,3.20
2022-09-13T23:21:54.892Z,3.10
2022-09-13T23:24:43.425Z,3.13
2022-09-13T23:27:31.327Z,3.08
2022-09-13T23:30:18.494Z,3.20
2022-09-13T23:33:06.091Z,3.70
2022-09-13T23:35:59.258Z,3.40
2022-09-13T23:38:50.227Z,3.10
2022-09-13T23:41:38.989Z,3.65
2022-09-13T23:44:27.397Z,3.17
2022-09-13T23:47:14.707Z,3.42
2022-09-13T23:50:01.572Z,3.17
2022-09-13T23:52:48.371Z,3.05
2022-09-13T23:55:35.478Z,3.25
2022-09-13T23:58:24.143Z,3.28
